Time;durP1;ratioP1;P1;durP2;ratioP2;P2;SDS_P1;SDS_P2;PMS_P1;PMS_P2;Temp;Humidity;BMP_temperature;BMP_pressure;BME280_temperature;BME280_humidity;BME280_pressure;Samples;Min_cycle;Max_cycle;Signal;HPM_P1;HPM_P2
2021/01/07 00:00:04;;;;;;;39.08;24.25;;;;;;;-0.70;96.82;99017.94;1843327;77;21001;-65
2021/01/07 00:02:34;;;;;;;36.95;24.23;;;;;;;-0.69;96.73;99014.93;1832165;76;21787;-65
2021/01/07 00:05:02;;;;;;;44.48;26.00;;;;;;;-0.65;96.85;99015.73;1842622;77;21056;-66
2021/01/07 00:07:29;;;;;;;40.52;25.05;;;;;;;-0.58;97.01;99014.80;1831695;77;21150;-65
2021/01/07 00:09:56;;;;;;;44.35;25.48;;;;;;;-0.50;97.02;99015.54;1832496;77;21648;-66
2021/01/07 00:12:23;;;;;;;36.90;24.23;;;;;;;-0.46;96.94;99014.61;1831693;77;21084;-65
2021/01/07 00:14:50;;;;;;;50.45;25.88;;;;;;;-0.49;96.76;99019.79;1837272;77;21721;-65
2021/01/07 00:17:17;;;;;;;43.68;25.15;;;;;;;-0.49;96.83;99012.09;1835435;77;20985;-66
2021/01/07 00:19:44;;;;;;;40.75;24.98;;;;;;;-0.47;96.92;99012.93;1841112;77;21195;-65
2021/01/07 00:22:11;;;;;;;40.03;24.25;;;;;;;-0.47;96.92;99014.21;1838685;76;22558;-66
2021/01/07 00:24:48;;;;;;;41.37;22.10;;;;;;;-0.49;96.85;99012.09;1841149;77;21242;-66
2021/01/07 00:27:15;;;;;;;42.13;24.18;;;;;;;-0.52;96.86;99005.28;1839957;77;21558;-66
2021/01/07 00:29:44;;;;;;;40.52;23.35;;;;;;;-0.53;96.88;99001.48;1842013;77;21005;-65
2021/01/07 00:32:15;;;;;;;40.25;23.98;;;;;;;-0.53;96.95;99000.20;1838519;77;21052;-66
2021/01/07 00:34:43;;;;;;;37.25;23.75;;;;;;;-0.54;96.93;98994.63;1840858;77;21143;-66
2021/01/07 00:37:11;;;;;;;39.50;23.05;;;;;;;-0.57;96.91;98993.41;1842094;77;21130;-66
2021/01/07 00:39:38;;;;;;;37.98;23.07;;;;;;;-0.60;96.91;98992.16;1845533;77;21183;-66
2021/01/07 00:42:06;;;;;;;32.75;22.60;;;;;;;-0.60;96.92;98992.16;1850109;77;21147;-66
2021/01/07 00:44:40;;;;;;;44.03;25.30;;;;;;;-0.62;96.97;98984.92;1851153;77;21197;-66
2021/01/07 00:47:08;;;;;;;35.58;22.42;;;;;;;-0.65;96.92;98982.40;1843698;77;21296;-65
2021/01/07 00:49:38;;;;;;;39.18;23.27;;;;;;;-0.68;96.92;98979.00;1846142;77;21559;-66
2021/01/07 00:52:05;;;;;;;34.27;21.10;;;;;;;-0.71;96.89;98976.48;1810261;78;21508;-66
2021/01/07 00:54:37;;;;;;;38.92;22.42;;;;;;;-0.75;96.88;98978.69;1812888;78;21000;-66
2021/01/07 00:57:04;;;;;;;39.03;21.25;;;;;;;-0.77;96.90;98977.85;1812634;78;21243;-66
2021/01/07 00:59:34;;;;;;;38.00;22.52;;;;;;;-0.81;96.88;98979.18;1813849;78;21196;-66
2021/01/07 01:02:04;;;;;;;42.03;25.15;;;;;;;-0.86;96.86;98984.39;1812797;78;27107;-66
2021/01/07 01:04:32;;;;;;;34.78;21.50;;;;;;;-0.93;96.86;98986.61;1808861;78;21020;-66
2021/01/07 01:07:07;;;;;;;32.65;20.88;;;;;;;-0.97;96.91;98981.12;1813122;78;21049;-66
2021/01/07 01:09:38;;;;;;;29.60;19.05;;;;;;;-0.99;97.00;98984.12;1811338;78;21215;-66
2021/01/07 01:12:07;;;;;;;28.02;18.48;;;;;;;-0.99;97.05;98977.72;1812176;78;21199;-66
2021/01/07 01:14:34;;;;;;;31.10;19.70;;;;;;;-0.99;97.08;98976.00;1808177;78;21622;-66
2021/01/07 01:17:02;;;;;;;34.73;21.02;;;;;;;-0.99;97.11;98975.16;1789272;78;21159;-66
2021/01/07 01:19:29;;;;;;;35.48;20.12;;;;;;;-0.98;97.13;98975.56;1781236;79;21188;-66
2021/01/07 01:21:56;;;;;;;35.58;20.02;;;;;;;-0.98;97.15;98971.71;1794302;79;21206;-66
2021/01/07 01:24:23;;;;;;;28.92;19.40;;;;;;;-0.98;97.15;98972.99;1790749;79;21211;-65
2021/01/07 01:26:55;;;;;;;25.70;16.97;;;;;;;-0.99;97.10;98975.16;1782993;79;21626;-65
2021/01/07 01:29:23;;;;;;;25.27;16.07;;;;;;;-1.03;97.02;98974.80;1793901;79;21210;-66
2021/01/07 01:31:51;;;;;;;;;;;;;;;-1.04;97.08;98976.92;1791900;79;21044;-66
2021/01/07 01:34:22;;;;;;;19.95;12.82;;;;;;;-1.05;97.10;98965.83;1798445;79;20540;-65
2021/01/07 01:36:51;;;;;;;19.57;12.23;;;;;;;-1.03;97.08;98973.52;1784235;79;22235;-65
2021/01/07 01:39:19;;;;;;;22.35;12.45;;;;;;;-1.02;97.04;98970.91;1792475;79;21709;-65
2021/01/07 01:41:48;;;;;;;20.68;12.23;;;;;;;-1.04;96.90;98966.67;1790847;79;21613;-66
2021/01/07 01:44:17;;;;;;;19.52;13.13;;;;;;;-1.03;96.92;98963.27;1795507;79;21622;-65
2021/01/07 01:46:44;;;;;;;20.37;13.20;;;;;;;-1.03;96.88;98961.55;1787078;79;21645;-65
2021/01/07 01:49:12;;;;;;;20.50;13.65;;;;;;;-1.01;96.87;98964.06;1789609;79;21656;-65
2021/01/07 01:51:40;;;;;;;19.20;12.82;;;;;;;-0.99;96.83;98964.91;1791831;79;21217;-66
2021/01/07 01:54:07;;;;;;;21.48;14.73;;;;;;;-0.99;96.78;98967.47;1794018;79;21091;-66
2021/01/07 01:56:35;;;;;;;22.13;15.45;;;;;;;-1.00;96.75;98963.22;1795307;78;21126;-65
2021/01/07 01:59:02;;;;;;;;;;;;;;;-0.98;96.70;98959.77;1778196;80;21146;-66
2021/01/07 02:01:29;;;;;;;19.60;11.60;;;;;;;-0.92;96.82;98964.81;1813809;78;21302;-66
2021/01/07 02:03:58;;;;;;;17.42;10.38;;;;;;;-0.86;96.95;98955.36;1810806;78;21571;-65
2021/01/07 02:06:27;;;;;;;13.75;9.80;;;;;;;-0.81;96.95;98953.55;1799562;78;21112;-65
2021/01/07 02:08:55;;;;;;;14.40;8.78;;;;;;;-0.83;96.75;98957.44;1806073;78;21025;-66
2021/01/07 02:11:22;;;;;;;;;;;;;;;-0.81;96.79;98948.02;1814220;78;21139;-66
2021/01/07 02:13:50;;;;;;;14.63;9.05;;;;;;;-0.80;96.76;98956.11;1798743;78;21199;-65
2021/01/07 02:16:24;;;;;;;14.07;9.10;;;;;;;-0.79;96.78;98947.54;1808966;78;21658;-65
2021/01/07 02:18:56;;;;;;;14.93;9.60;;;;;;;-0.81;96.79;98946.73;1787276;80;21071;-65
2021/01/07 02:21:24;;;;;;;15.08;9.85;;;;;;;-0.81;96.81;98946.73;1803122;78;21152;-66
2021/01/07 02:23:53;;;;;;;15.63;10.03;;;;;;;-0.81;96.84;98948.42;1814470;78;21124;-65
2021/01/07 02:26:22;;;;;;;18.17;12.23;;;;;;;-0.84;96.77;98946.78;1806510;78;21667;-65
2021/01/07 02:28:50;;;;;;;24.30;15.32;;;;;;;-0.87;96.72;98942.95;1802139;78;21547;-66
2021/01/07 02:31:18;;;;;;;21.80;15.00;;;;;;;-0.91;96.74;98942.59;1810750;78;20989;-65
2021/01/07 02:33:46;;;;;;;20.00;13.28;;;;;;;-0.93;96.77;98939.19;1810412;78;21193;-65
2021/01/07 02:36:13;;;;;;;;;;;;;;;-0.94;96.79;98942.64;1784868;80;21665;-65
2021/01/07 02:38:41;;;;;;;28.20;17.50;;;;;;;-0.97;96.78;98946.52;1775819;79;21209;-66
2021/01/07 02:41:09;;;;;;;;;;;;;;;-1.01;96.77;98938.44;1785709;80;21618;-65
2021/01/07 02:43:40;;;;;;;28.77;16.35;;;;;;;-1.03;96.90;98935.92;1776108;79;20217;-66
2021/01/07 02:46:08;;;;;;;23.10;15.10;;;;;;;-1.01;96.98;98932.04;1800622;79;21539;-65
2021/01/07 02:48:35;;;;;;;25.85;16.07;;;;;;;-1.01;96.98;98927.78;1803001;79;21004;-65
2021/01/07 02:51:03;;;;;;;29.05;16.82;;;;;;;-0.99;96.97;98929.03;1802395;78;21679;-65
2021/01/07 02:53:30;;;;;;;27.93;16.32;;;;;;;-0.99;96.97;98921.34;1807126;78;21040;-65
2021/01/07 02:55:57;;;;;;;24.07;14.63;;;;;;;-0.99;96.93;98923.91;1803539;78;21049;-65
2021/01/07 02:58:23;;;;;;;23.70;14.40;;;;;;;-0.99;96.92;98923.91;1807256;78;21136;-65
2021/01/07 03:00:50;;;;;;;19.25;14.50;;;;;;;-0.99;96.94;98929.88;1807288;78;21132;-65
2021/01/07 03:03:17;;;;;;;23.87;14.98;;;;;;;-0.98;96.94;98930.72;1766884;80;21686;-65
2021/01/07 03:05:44;;;;;;;21.20;14.75;;;;;;;-0.97;96.95;98925.58;1779956;79;22183;-65
2021/01/07 03:08:11;;;;;;;21.50;14.68;;;;;;;-0.96;96.91;98928.98;1780426;80;21036;-65
2021/01/07 03:10:38;;;;;;;20.92;14.95;;;;;;;-0.97;96.89;98920.45;1785995;79;21641;-65
2021/01/07 03:13:06;;;;;;;20.08;12.65;;;;;;;-0.98;96.89;98920.05;1809827;78;21790;-65
2021/01/07 03:15:33;;;;;;;16.85;11.68;;;;;;;-0.97;96.87;98920.45;1813877;79;22178;-65
2021/01/07 03:18:00;;;;;;;23.15;13.35;;;;;;;-0.97;96.89;98917.05;1813810;78;21131;-65
2021/01/07 03:20:27;;;;;;;26.87;14.25;;;;;;;-0.97;96.87;98919.17;1812628;78;21563;-65
2021/01/07 03:22:54;;;;;;;23.55;15.60;;;;;;;-1.01;96.72;98915.38;1808201;79;21017;-65
2021/01/07 03:25:21;;;;;;;21.25;13.32;;;;;;;-1.06;96.65;98919.75;1810951;78;21202;-65
2021/01/07 03:27:48;;;;;;;;;;;;;;;-1.05;96.75;98913.75;1815114;77;21198;-65
2021/01/07 03:30:19;;;;;;;12.28;8.58;;;;;;;-1.06;96.59;98910.34;1810162;79;20196;-65
2021/01/07 03:32:46;;;;;;;11.30;8.30;;;;;;;-1.01;96.71;98906.41;1803815;79;21017;-65
2021/01/07 03:35:13;;;;;;;11.25;8.08;;;;;;;-0.80;97.28;98899.72;1812278;79;21008;-65
2021/01/07 03:37:40;;;;;;;16.48;10.13;;;;;;;-0.80;97.28;98899.72;1811595;78;21187;-65
2021/01/07 03:40:09;;;;;;;13.75;9.68;;;;;;;-0.78;96.73;98902.27;1805419;79;21665;-65
2021/01/07 03:42:36;;;;;;;15.75;10.95;;;;;;;-0.76;96.59;98908.20;1802235;79;21025;-65
2021/01/07 03:45:05;;;;;;;21.90;14.93;;;;;;;-0.81;96.40;98904.45;1806082;79;21603;-65
2021/01/07 03:47:32;;;;;;;20.50;13.88;;;;;;;-0.83;96.36;98906.17;1804690;79;21183;-65
2021/01/07 03:49:59;;;;;;;18.10;11.97;;;;;;;-0.82;96.52;98909.14;1805807;79;21003;-65
2021/01/07 03:52:26;;;;;;;18.87;12.30;;;;;;;-0.75;96.72;98907.35;1808575;79;21210;-65
2021/01/07 03:54:53;;;;;;;28.85;16.77;;;;;;;-0.73;96.63;98911.59;1810413;79;21697;-65
2021/01/07 03:57:20;;;;;;;24.82;16.27;;;;;;;-0.78;96.32;98910.80;1807294;79;21013;-65
2021/01/07 03:59:46;;;;;;;18.73;12.60;;;;;;;-0.78;96.43;98909.52;1807080;79;21597;-66
2021/01/07 04:02:13;;;;;;;17.30;10.23;;;;;;;-0.78;96.56;98908.24;1806795;79;21179;-65
2021/01/07 04:04:40;;;;;;;14.35;10.32;;;;;;;-0.77;96.58;98904.80;1807290;79;21604;-65
2021/01/07 04:07:07;;;;;;;13.78;9.93;;;;;;;-0.77;96.53;98904.80;1802725;79;21023;-64
2021/01/07 04:09:34;;;;;;;15.55;10.90;;;;;;;-0.80;96.46;98902.28;1806608;78;21626;-65
2021/01/07 04:12:01;;;;;;;14.20;9.73;;;;;;;-0.84;96.48;98900.64;1808353;78;21060;-65
2021/01/07 04:14:29;;;;;;;13.53;9.95;;;;;;;-0.87;96.51;98904.95;1810913;78;21085;-65
2021/01/07 04:16:59;;;;;;;13.45;9.50;;;;;;;-0.91;96.55;98911.84;1805691;78;22152;-65
2021/01/07 04:19:28;;;;;;;13.50;10.05;;;;;;;-0.94;96.56;98901.63;1806603;79;21151;-65
2021/01/07 04:21:55;;;;;;;17.32;11.45;;;;;;;-0.95;96.67;98902.52;1803581;79;21060;-65
2021/01/07 04:24:22;;;;;;;18.48;11.70;;;;;;;-0.98;96.63;98908.93;1740123;81;21231;-65
2021/01/07 04:26:49;;;;;;;19.73;12.47;;;;;;;-0.96;96.71;98894.39;1765121;80;21190;-65
2021/01/07 04:29:16;;;;;;;16.60;11.78;;;;;;;-0.96;96.72;98897.80;1770472;80;22192;-64
2021/01/07 04:31:43;;;;;;;19.85;12.47;;;;;;;-0.97;96.63;98893.98;1766951;80;21002;-65
2021/01/07 04:34:10;;;;;;;21.87;13.45;;;;;;;-1.00;96.59;98900.45;1768827;80;21244;-65
2021/01/07 04:36:37;;;;;;;16.05;12.30;;;;;;;-1.03;96.53;98902.61;1765502;80;21092;-64
2021/01/07 04:39:04;;;;;;;21.62;14.50;;;;;;;-1.05;96.56;98895.81;1777407;79;21155;-65
2021/01/07 04:41:31;;;;;;;19.25;13.03;;;;;;;-1.05;96.55;98899.21;1786280;79;21234;-65
2021/01/07 04:44:00;;;;;;;19.25;13.53;;;;;;;-1.09;96.30;98896.70;1789754;79;21574;-65
2021/01/07 04:46:27;;;;;;;18.05;12.90;;;;;;;-1.18;96.03;98886.98;1784150;79;21182;-65
2021/01/07 04:48:54;;;;;;;;;;;;;;;-1.24;96.17;98885.80;1790994;79;21208;-65
2021/01/07 04:51:21;;;;;;;17.67;12.40;;;;;;;-1.25;96.25;98886.67;1789059;79;20623;-65
2021/01/07 04:53:50;;;;;;;18.05;10.85;;;;;;;-1.26;96.51;98881.15;1789223;79;21681;-65
2021/01/07 04:56:17;;;;;;;15.80;11.40;;;;;;;-1.18;96.73;98885.70;1782153;79;21033;-65
2021/01/07 04:58:44;;;;;;;16.80;11.35;;;;;;;-1.18;96.58;98883.14;1786370;79;21595;-65
2021/01/07 05:01:11;;;;;;;16.87;11.03;;;;;;;-1.18;96.59;98880.58;1785334;79;21045;-65
2021/01/07 05:03:38;;;;;;;15.65;10.25;;;;;;;-1.14;96.70;98872.01;1788664;79;21563;-65
2021/01/07 05:06:06;;;;;;;19.27;11.33;;;;;;;-1.05;96.92;98870.19;1761292;79;21209;-65
2021/01/07 05:08:32;;;;;;;18.82;11.55;;;;;;;-0.98;96.94;98867.53;1792306;79;21179;-65
2021/01/07 05:10:59;;;;;;;16.82;11.15;;;;;;;-0.91;97.06;98868.27;1786310;79;21207;-65
2021/01/07 05:13:26;;;;;;;17.87;11.60;;;;;;;-0.90;96.81;98863.55;1786667;79;21210;-65
2021/01/07 05:15:53;;;;;;;17.50;11.45;;;;;;;-0.88;96.76;98867.38;1786372;79;21162;-65
2021/01/07 05:18:21;;;;;;;18.75;12.00;;;;;;;-0.90;96.72;98858.42;1787602;79;21372;-65
2021/01/07 05:20:48;;;;;;;18.70;11.35;;;;;;;-0.90;96.68;98857.14;1783595;79;21158;-65
2021/01/07 05:23:16;;;;;;;14.85;10.68;;;;;;;-0.82;96.83;98865.56;1786841;79;21151;-65
2021/01/07 05:25:43;;;;;;;17.07;11.73;;;;;;;-0.77;96.88;98863.78;1788382;79;21693;-65
2021/01/07 05:28:12;;;;;;;;;;;;;;;-0.80;96.54;98857.42;1794900;79;21168;-65
2021/01/07 05:30:39;;;;;;;15.75;12.13;;;;;;;-0.85;96.41;98864.77;1787633;79;21616;-65
2021/01/07 05:33:09;;;;;;;21.70;12.93;;;;;;;-0.89;96.46;98866.55;1784387;79;21052;-65
2021/01/07 05:35:37;;;;;;;17.27;12.43;;;;;;;-0.92;96.45;98861.47;1782073;79;21026;-65
2021/01/07 05:38:07;;;;;;;19.48;13.03;;;;;;;-0.92;96.47;98861.47;1788615;79;21218;-65
2021/01/07 05:40:35;;;;;;;17.07;12.78;;;;;;;-0.91;96.57;98865.70;1787202;79;21057;-66
2021/01/07 05:43:13;;;;;;;19.37;13.32;;;;;;;-0.92;96.43;98860.19;1788057;79;21279;-65
2021/01/07 05:45:44;;;;;;;20.12;14.33;;;;;;;-0.91;96.50;98859.30;1788376;79;21533;-65
2021/01/07 05:48:11;;;;;;;19.10;13.95;;;;;;;-0.93;96.37;98859.75;1777331;79;21144;-64
2021/01/07 05:50:41;;;;;;;15.48;10.18;;;;;;;-0.94;96.30;98858.07;1785195;79;20914;-65
2021/01/07 05:53:08;;;;;;;14.07;10.32;;;;;;;-0.93;96.39;98862.31;1787210;79;21009;-65
2021/01/07 05:55:36;;;;;;;17.20;10.60;;;;;;;-0.93;96.43;98868.72;1790680;79;21187;-65
2021/01/07 05:58:04;;;;;;;15.43;10.55;;;;;;;-0.92;96.45;98860.19;1787546;79;21155;-65
2021/01/07 06:00:33;;;;;;;18.27;10.95;;;;;;;-0.92;96.40;98861.47;1787944;79;21053;-65
2021/01/07 06:03:02;;;;;;;13.35;10.38;;;;;;;-0.91;96.46;98863.15;1790964;79;21222;-65
2021/01/07 06:05:30;;;;;;;14.65;10.40;;;;;;;-0.91;96.51;98856.30;1790107;79;21131;-65
2021/01/07 06:07:59;;;;;;;;;;;;;;;-0.88;96.64;98859.70;1793879;79;21202;-65
2021/01/07 06:10:26;;;;;;;14.70;10.00;;;;;;;-0.78;96.93;98857.41;1788310;79;20237;-65
2021/01/07 06:12:55;;;;;;;17.50;10.85;;;;;;;-0.71;97.07;98858.55;1787952;79;21131;-64
2021/01/07 06:15:24;;;;;;;12.50;10.35;;;;;;;-0.66;97.07;98860.22;1781703;79;21100;-65
2021/01/07 06:17:52;;;;;;;15.13;10.48;;;;;;;-0.68;96.90;98855.10;1791045;79;20993;-65
2021/01/07 06:20:22;;;;;;;13.50;10.43;;;;;;;-0.73;96.59;98851.76;1783879;79;21160;-65
2021/01/07 06:22:53;;;;;;;13.58;10.38;;;;;;;-0.79;96.45;98852.70;1778242;79;21582;-65
2021/01/07 06:25:23;;;;;;;15.35;10.53;;;;;;;-0.80;96.46;98857.42;1788487;79;21029;-65
2021/01/07 06:27:53;;;;;;;27.32;13.95;;;;;;;-0.78;96.62;98846.72;1786968;79;21055;-65
2021/01/07 06:30:28;;;;;;;19.82;13.20;;;;;;;-0.71;96.78;98848.30;1783228;79;22809;-65
2021/01/07 06:33:07;;;;;;;17.60;12.23;;;;;;;-0.65;96.69;98843.95;1788699;79;21207;-65
2021/01/07 06:35:38;;;;;;;16.52;11.88;;;;;;;-0.63;96.62;98847.34;1789780;79;21115;-65
2021/01/07 06:38:05;;;;;;;16.57;12.30;;;;;;;-0.63;96.53;98848.63;1787350;79;21615;-65
2021/01/07 06:40:42;;;;;;;21.68;13.70;;;;;;;-0.70;96.47;98853.86;1779482;79;21001;-66
2021/01/07 06:43:13;;;;;;;;;;;;;;;-0.74;96.44;98855.20;1777633;79;21701;-65
2021/01/07 06:45:50;;;;;;;24.07;15.32;;;;;;;-0.79;96.36;98855.27;1773234;80;21209;-65
2021/01/07 06:48:31;;;;;;;19.57;14.60;;;;;;;-0.79;96.54;98861.67;1775206;80;21672;-65
2021/01/07 06:51:00;;;;;;;28.10;17.73;;;;;;;-0.79;96.52;98855.27;1772254;79;20933;-65
2021/01/07 06:53:28;;;;;;;38.85;21.95;;;;;;;-0.80;96.49;98862.55;1778137;80;21021;-65
2021/01/07 06:56:17;;;;;;;50.35;26.73;;;;;;;-0.78;96.66;98856.98;1776018;80;21033;-65
2021/01/07 06:58:46;;;;;;;49.00;32.15;;;;;;;-0.79;96.54;98855.27;1775435;79;21200;-65
2021/01/07 07:01:18;;;;;;;49.27;32.28;;;;;;;-0.75;96.72;98858.20;1776929;79;21612;-65
2021/01/07 07:03:52;;;;;;;18.73;13.00;;;;;;;-0.72;96.71;98862.00;1777262;79;21076;-65
2021/01/07 07:06:26;;;;;;;17.35;11.50;;;;;;;-0.72;96.57;98864.56;1778209;80;21234;-65
2021/01/07 07:08:54;;;;;;;18.30;12.75;;;;;;;-0.75;96.51;98858.20;1779551;80;21056;-65
2021/01/07 07:11:34;;;;;;;19.75;13.38;;;;;;;-0.76;96.49;98862.06;1779285;79;21696;-65
2021/01/07 07:14:07;;;;;;;17.23;12.10;;;;;;;-0.86;96.27;98857.52;1777265;79;21016;-65
2021/01/07 07:16:36;;;;;;;18.05;12.43;;;;;;;-0.94;96.22;98858.07;1781100;79;21088;-65
2021/01/07 07:19:08;;;;;;;19.70;13.18;;;;;;;-0.99;96.24;98860.69;1776832;80;21235;-65
2021/01/07 07:21:36;;;;;;;23.52;15.00;;;;;;;-0.98;96.47;98858.97;1781891;79;21579;-65
2021/01/07 07:24:10;;;;;;;18.52;12.82;;;;;;;-0.97;96.53;98865.80;1776917;79;21214;-65
2021/01/07 07:26:40;;;;;;;19.17;14.07;;;;;;;-0.90;96.83;98858.42;1750712;79;21127;-65
2021/01/07 07:29:18;;;;;;;19.85;14.28;;;;;;;-0.80;96.95;98866.40;1771624;80;21001;-64
2021/01/07 07:31:47;;;;;;;27.02;18.35;;;;;;;-0.70;97.08;98862.84;1770685;80;21213;-64
2021/01/07 07:34:17;;;;;;;24.32;18.15;;;;;;;-0.69;96.74;98864.95;1781846;80;21183;-63
2021/01/07 07:36:44;;;;;;;29.82;18.10;;;;;;;-0.66;96.71;98862.78;1776810;79;21154;-64
2021/01/07 07:39:13;;;;;;;23.60;17.45;;;;;;;-0.69;96.49;98867.08;1774604;79;21313;-63
2021/01/07 07:41:45;;;;;;;22.82;16.35;;;;;;;-0.64;96.75;98868.71;1786487;79;21636;-63
2021/01/07 07:44:14;;;;;;;22.02;16.02;;;;;;;-0.55;96.86;98862.17;1770458;80;21155;-64
2021/01/07 07:46:44;;;;;;;23.62;15.18;;;;;;;-0.52;96.61;98865.97;1773334;80;21539;-63
2021/01/07 07:49:11;;;;;;;23.60;15.55;;;;;;;-0.58;96.44;98875.05;1767261;80;21666;-64
2021/01/07 07:51:39;;;;;;;20.85;14.98;;;;;;;-0.52;96.73;98876.23;1772027;80;21032;-63
2021/01/07 07:54:10;;;;;;;21.07;16.15;;;;;;;-0.46;96.87;98876.12;1769285;80;21053;-64
2021/01/07 07:56:41;;;;;;;25.52;17.32;;;;;;;-0.40;96.79;98883.71;1771531;80;21251;-64
2021/01/07 07:59:11;;;;;;;26.23;18.35;;;;;;;-0.37;96.75;98879.81;1766114;79;21162;-63
2021/01/07 08:01:49;;;;;;;25.90;17.27;;;;;;;-0.42;96.44;98885.48;1770067;79;21208;-64
2021/01/07 08:04:20;;;;;;;23.05;16.65;;;;;;;-0.49;96.21;98891.56;1765552;80;21097;-63
2021/01/07 08:06:53;;;;;;;24.45;16.65;;;;;;;-0.56;96.08;98887.39;1772205;80;21042;-64
2021/01/07 08:09:22;;;;;;;26.48;17.52;;;;;;;-0.59;96.09;98884.88;1765096;80;21214;-63
2021/01/07 08:11:54;;;;;;;24.27;16.90;;;;;;;-0.58;96.22;98891.72;1767344;80;21554;-63
2021/01/07 08:14:25;;;;;;;26.82;17.62;;;;;;;-0.55;96.40;98889.10;1767382;80;21585;-63
2021/01/07 08:16:59;;;;;;;24.90;17.75;;;;;;;-0.49;96.58;98878.74;1784162;79;21869;-63
2021/01/07 08:19:36;;;;;;;19.50;16.25;;;;;;;-0.41;96.70;98882.03;1760727;80;21070;-64
2021/01/07 08:22:04;;;;;;;23.25;16.77;;;;;;;-0.32;96.68;98885.72;1758317;80;22284;-64
2021/01/07 08:24:33;;;;;;;25.95;17.10;;;;;;;-0.25;96.62;98880.91;1750719;81;21171;-63
2021/01/07 08:27:21;;;;;;;27.45;17.52;;;;;;;-0.27;96.44;98881.36;1754489;81;22253;-64
2021/01/07 08:30:01;;;;;;;28.15;18.95;;;;;;;-0.28;96.37;98886.09;1749602;80;21164;-64
2021/01/07 08:32:41;;;;;;;26.10;17.98;;;;;;;-0.28;96.42;98886.09;1746166;80;21032;-64
2021/01/07 08:35:11;;;;;;;29.92;20.02;;;;;;;-0.24;96.44;98885.16;1758107;80;21218;-63
2021/01/07 08:37:42;;;;;;;32.13;21.57;;;;;;;-0.19;96.43;98888.94;1755157;80;21196;-64
2021/01/07 08:40:11;;;;;;;47.73;30.90;;;;;;;-0.17;96.22;98885.05;1781405;79;21241;-64
2021/01/07 08:42:40;;;;;;;33.23;22.93;;;;;;;-0.13;96.19;98886.70;1801898;78;21068;-64
2021/01/07 08:45:20;;;;;;;33.40;21.65;;;;;;;-0.05;96.48;98882.28;1811648;78;21060;-64
2021/01/07 08:48:18;;;;;;;33.63;23.22;;;;;;;0.07;96.64;98883.34;1785966;79;21606;-64
2021/01/07 08:50:55;;;;;;;48.83;30.77;;;;;;;0.13;96.44;98892.20;1790475;79;21218;-64
2021/01/07 08:53:43;;;;;;;46.20;32.78;;;;;;;0.16;96.24;98889.57;1788661;79;21630;-64
2021/01/07 08:56:39;;;;;;;55.43;36.33;;;;;;;0.16;96.06;98887.01;1789455;79;21319;-64
2021/01/07 08:59:29;;;;;;;66.85;42.17;;;;;;;0.23;96.15;98880.50;1807614;78;21108;-64
2021/01/07 09:02:22;;;;;;;49.25;29.60;;;;;;;0.29;96.11;98881.22;1802759;78;21016;-64
2021/01/07 09:05:07;;;;;;;49.20;27.98;;;;;;;0.29;95.80;98884.23;1777798;78;21155;-64
2021/01/07 09:07:50;;;;;;;42.45;27.82;;;;;;;0.32;95.80;98879.87;1810363;78;21566;-64
2021/01/07 09:10:34;;;;;;;45.85;27.90;;;;;;;0.32;95.64;98881.59;1804258;78;21045;-64
2021/01/07 09:13:33;;;;;;;42.85;28.60;;;;;;;0.41;95.97;98872.42;1777032;79;21197;-65
2021/01/07 09:16:23;;;;;;;45.92;27.87;;;;;;;0.55;96.22;98869.58;1807957;78;21219;-64
2021/01/07 09:19:16;;;;;;;38.25;25.80;;;;;;;0.59;95.91;98873.35;1808043;78;21013;-64
2021/01/07 09:22:12;;;;;;;41.83;26.87;;;;;;;0.72;96.13;98871.36;1777606;80;21807;-63
2021/01/07 09:24:42;;;;;;;36.73;24.75;;;;;;;0.87;96.24;98867.64;1810215;78;21064;-64
2021/01/07 09:27:19;;;;;;;40.30;25.10;;;;;;;0.83;95.51;98868.56;1808660;78;21527;-64
2021/01/07 09:29:55;;;;;;;40.45;26.00;;;;;;;0.80;95.21;98869.92;1800722;78;21004;-64
2021/01/07 09:32:42;;;;;;;35.80;24.52;;;;;;;0.76;95.10;98867.02;1802676;78;21184;-63
2021/01/07 09:35:20;;;;;;;37.10;25.43;;;;;;;0.78;95.15;98861.39;1812247;78;22605;-63
2021/01/07 09:37:46;;;;;;;32.88;22.77;;;;;;;0.84;95.19;98859.97;1798490;78;21124;-63
2021/01/07 09:40:14;;;;;;;36.23;24.40;;;;;;;0.81;94.93;98860.03;1781679;78;21128;-63
2021/01/07 09:42:41;;;;;;;;;;;;;;;0.73;94.53;98861.92;1789510;78;21206;-63
2021/01/07 09:45:10;;;;;;;34.78;23.62;;;;;;;0.59;94.25;98852.80;1799138;78;20305;-64
2021/01/07 09:47:38;;;;;;;31.07;20.50;;;;;;;0.53;94.37;98855.47;1797509;79;21220;-63
2021/01/07 09:50:07;;;;;;;;;;;;;;;0.56;94.66;98859.70;1803893;78;21574;-64
2021/01/07 09:52:34;;;;;;;30.00;21.35;;;;;;;0.65;94.98;98859.09;1806321;78;20279;-63
2021/01/07 09:55:02;;;;;;;30.65;20.45;;;;;;;0.84;95.29;98852.25;1783762;78;21639;-63
2021/01/07 09:57:29;;;;;;;26.87;17.75;;;;;;;1.02;95.63;98854.44;1807529;78;21640;-63
2021/01/07 09:59:56;;;;;;;23.50;17.10;;;;;;;1.30;96.05;98840.94;1797134;78;21186;-63
2021/01/07 10:02:24;;;;;;;22.35;16.20;;;;;;;1.38;95.16;98844.18;1799286;78;21591;-63
2021/01/07 10:04:51;;;;;;;21.48;15.25;;;;;;;1.32;94.69;98847.74;1802147;78;21605;-63
2021/01/07 10:07:18;;;;;;;23.27;15.48;;;;;;;1.18;94.01;98845.09;1791152;78;20958;-64
2021/01/07 10:09:46;;;;;;;21.68;15.18;;;;;;;1.06;94.15;98842.34;1796094;78;21600;-63
2021/01/07 10:12:13;;;;;;;22.15;15.28;;;;;;;0.82;94.17;98811.63;1797916;78;22159;-63
2021/01/07 10:14:40;;;;;;;23.62;16.35;;;;;;;0.99;94.55;98844.22;1786595;79;21194;-63
2021/01/07 10:17:09;;;;;;;23.92;16.65;;;;;;;1.02;94.63;98841.58;1778635;79;21669;-63
2021/01/07 10:19:39;;;;;;;23.87;15.43;;;;;;;0.94;94.23;98844.76;1770832;79;21135;-63
2021/01/07 10:22:14;;;;;;;23.50;15.15;;;;;;;0.75;94.01;98842.19;1789401;79;21606;-63
2021/01/07 10:24:47;;;;;;;24.72;15.98;;;;;;;0.74;94.71;98847.77;1789171;78;22125;-63
2021/01/07 10:27:17;;;;;;;21.15;13.55;;;;;;;0.84;95.22;98839.41;1811983;78;21209;-63
2021/01/07 10:29:48;;;;;;;20.30;14.58;;;;;;;0.83;94.88;98845.44;1800674;78;21002;-63
2021/01/07 10:32:19;;;;;;;20.02;13.70;;;;;;;0.74;94.73;98844.36;1798266;78;21488;-63
2021/01/07 10:34:49;;;;;;;21.45;15.60;;;;;;;0.64;94.67;98850.98;1807213;78;21158;-63
2021/01/07 10:37:20;;;;;;;22.35;14.58;;;;;;;0.61;94.85;98853.59;1810827;78;22080;-63
2021/01/07 10:39:50;;;;;;;21.40;16.20;;;;;;;0.65;94.98;98850.09;1806278;78;21123;-64
2021/01/07 10:42:18;;;;;;;26.82;17.98;;;;;;;0.62;94.86;98845.03;1795572;78;21187;-64
2021/01/07 10:44:49;;;;;;;25.80;16.40;;;;;;;0.68;95.08;98848.34;1779213;80;21646;-63
2021/01/07 10:47:17;;;;;;;27.37;16.55;;;;;;;0.64;94.90;98845.84;1775245;80;21136;-65
2021/01/07 10:49:47;;;;;;;23.12;16.90;;;;;;;0.66;95.04;98840.66;1790370;80;21234;-64
2021/01/07 10:52:23;;;;;;;26.05;16.90;;;;;;;0.65;94.98;98850.09;1779013;79;21610;-64
2021/01/07 10:55:02;;;;;;;26.35;17.82;;;;;;;0.68;95.00;98836.78;1767260;80;21258;-64
2021/01/07 10:57:49;;;;;;;24.25;17.02;;;;;;;0.69;94.98;98838.47;1771698;80;21024;-65
2021/01/07 11:00:46;;;;;;;27.48;16.95;;;;;;;0.73;95.13;98839.66;1771714;80;21191;-64
2021/01/07 11:03:40;;;;;;;23.75;15.88;;;;;;;0.84;95.55;98834.27;1782460;80;21567;-64
2021/01/07 11:06:13;;;;;;;23.57;16.20;;;;;;;0.90;95.47;98829.02;1784781;80;21056;-65
2021/01/07 11:08:53;;;;;;;19.95;14.45;;;;;;;0.96;95.59;98832.73;1780047;80;21627;-64
2021/01/07 11:11:28;;;;;;;18.60;15.38;;;;;;;1.03;95.68;98830.41;1772710;80;21068;-65
2021/01/07 11:14:08;;;;;;;23.05;16.93;;;;;;;1.00;95.21;98822.77;1785441;80;21139;-65
2021/01/07 11:16:46;;;;;;;22.20;15.00;;;;;;;0.94;94.99;98831.91;1782554;80;22166;-65
2021/01/07 11:19:29;;;;;;;19.98;15.68;;;;;;;1.01;95.51;98829.62;1779804;79;21143;-64
2021/01/07 11:22:11;;;;;;;22.85;16.30;;;;;;;1.08;95.56;98829.02;1768471;79;21143;-64
2021/01/07 11:24:40;;;;;;;19.48;15.50;;;;;;;1.16;95.74;98821.14;1780782;80;20997;-65
2021/01/07 11:27:11;;;;;;;20.68;15.58;;;;;;;1.27;95.94;98820.45;1788935;80;21588;-64
2021/01/07 11:29:44;;;;;;;22.67;15.38;;;;;;;1.23;95.38;98824.83;1786916;80;21270;-64
2021/01/07 11:32:12;;;;;;;18.87;14.35;;;;;;;1.17;95.15;98818.96;1784153;80;21041;-63
2021/01/07 11:34:39;;;;;;;21.20;14.95;;;;;;;1.13;95.07;98825.91;1780590;79;21191;-65
2021/01/07 11:37:30;;;;;;;24.65;15.25;;;;;;;1.09;95.06;98826.44;1777267;80;21238;-63